Time;durP1;ratioP1;P1;durP2;ratioP2;P2;SDS_P1;SDS_P2;PMS_P1;PMS_P2;Temp;Humidity;BMP_temperature;BMP_pressure;BME280_temperature;BME280_humidity;BME280_pressure;Samples;Min_cycle;Max_cycle;Signal;HPM_P1;HPM_P2
2022/11/23 00:01:16;;;;;;;4.63;1.50;;;8.60;99.90;;;;;;5073046;28;20503;-80
2022/11/23 00:03:44;;;;;;;5.23;1.50;;;8.70;99.90;;;;;;5072502;28;20498;-81
2022/11/23 00:06:11;;;;;;;3.87;1.30;;;8.70;99.90;;;;;;5072887;28;21026;-81
2022/11/23 00:08:38;;;;;;;3.93;1.17;;;8.70;99.90;;;;;;5072699;28;20455;-81
2022/11/23 00:11:06;;;;;;;5.40;1.60;;;8.80;99.90;;;;;;5073071;28;20451;-79
2022/11/23 00:13:34;;;;;;;5.87;1.30;;;8.80;99.90;;;;;;5073292;28;20830;-81
2022/11/23 00:16:03;;;;;;;4.50;1.30;;;8.70;99.90;;;;;;5072914;28;20451;-80
2022/11/23 00:18:30;;;;;;;2.93;1.00;;;8.80;99.90;;;;;;5073743;28;20509;-81
2022/11/23 00:20:57;;;;;;;4.77;2.23;;;8.80;99.90;;;;;;5073263;28;20986;-80
2022/11/23 00:23:23;;;;;;;5.20;1.40;;;8.80;99.90;;;;;;5090935;22;20511;-80
2022/11/23 00:25:50;;;;;;;9.33;1.57;;;8.90;99.90;;;;;;5072471;28;20456;-81
2022/11/23 00:28:18;;;;;;;4.97;1.30;;;8.80;99.90;;;;;;5074326;28;20460;-81
2022/11/23 00:30:49;;;;;;;5.07;2.10;;;8.90;99.90;;;;;;5076446;28;20540;-81
2022/11/23 00:33:16;;;;;;;4.70;1.30;;;8.90;99.90;;;;;;5078212;28;20463;-81
2022/11/23 00:35:43;;;;;;;5.83;1.40;;;8.90;99.90;;;;;;5076904;28;20543;-81
2022/11/23 00:38:10;;;;;;;5.17;1.90;;;9.00;99.90;;;;;;5093814;28;20451;-81
2022/11/23 00:40:36;;;;;;;3.30;1.37;;;9.00;99.90;;;;;;5098168;28;20452;-81
2022/11/23 00:43:03;;;;;;;4.30;1.40;;;9.00;99.90;;;;;;5095641;28;20491;-82
2022/11/23 00:45:32;;;;;;;3.30;1.30;;;9.00;99.90;;;;;;5096882;28;20474;-81
2022/11/23 00:47:58;;;;;;;6.83;1.20;;;9.00;99.90;;;;;;5096422;28;20460;-82
2022/11/23 00:50:25;;;;;;;7.80;1.50;;;9.00;99.90;;;;;;5096540;28;20459;-81
2022/11/23 00:52:52;;;;;;;4.50;1.10;;;9.00;99.90;;;;;;5077010;28;20476;-81
2022/11/23 00:55:19;;;;;;;3.90;1.20;;;9.00;99.90;;;;;;5075822;28;20458;-83
2022/11/23 00:57:47;;;;;;;2.87;1.30;;;9.00;99.90;;;;;;5093750;28;20542;-82
2022/11/23 01:00:14;;;;;;;2.77;1.47;;;9.10;99.90;;;;;;5095852;28;20488;-81
2022/11/23 01:02:42;;;;;;;4.50;1.20;;;9.10;99.90;;;;;;5095501;28;20488;-81
2022/11/23 01:05:09;;;;;;;7.73;1.40;;;9.10;99.90;;;;;;5096250;28;20456;-81
2022/11/23 01:07:36;;;;;;;6.53;1.63;;;9.20;99.90;;;;;;5102137;28;20458;-81
2022/11/23 01:10:04;;;;;;;4.17;1.20;;;9.10;99.90;;;;;;5109309;28;20515;-78
2022/11/23 01:12:30;;;;;;;5.50;1.23;;;9.10;99.90;;;;;;5100754;28;20527;-81
2022/11/23 01:14:57;;;;;;;3.80;1.27;;;9.20;99.90;;;;;;5104886;28;20792;-80
2022/11/23 01:17:24;;;;;;;2.10;1.40;;;9.20;99.90;;;;;;5103883;28;20487;-79
2022/11/23 01:19:52;;;;;;;3.27;1.03;;;9.20;99.90;;;;;;5087661;28;20452;-81
2022/11/23 01:22:20;;;;;;;4.33;1.23;;;9.20;99.90;;;;;;5101551;28;20527;-82
2022/11/23 01:24:49;;;;;;;4.80;1.80;;;9.20;99.90;;;;;;5100853;28;20460;-81
2022/11/23 01:27:15;;;;;;;4.23;1.17;;;9.20;99.90;;;;;;5098675;28;20462;-81
2022/11/23 01:29:42;;;;;;;3.80;1.13;;;9.20;99.90;;;;;;5095640;28;20964;-81
2022/11/23 01:32:09;;;;;;;3.07;1.27;;;9.30;99.90;;;;;;5099403;28;20451;-81
2022/11/23 01:34:37;;;;;;;2.03;0.97;;;9.30;99.90;;;;;;5100165;28;20502;-81
2022/11/23 01:37:10;;;;;;;6.13;1.00;;;9.30;99.90;;;;;;5088903;28;20455;-81
2022/11/23 01:39:36;;;;;;;3.73;1.20;;;9.20;99.90;;;;;;5064913;28;20447;-81
2022/11/23 01:42:05;;;;;;;5.13;1.30;;;9.10;99.90;;;;;;5089457;28;20530;-81
2022/11/23 01:44:35;;;;;;;2.63;1.23;;;9.10;99.90;;;;;;5093832;28;20486;-80
2022/11/23 01:47:04;;;;;;;2.90;1.20;;;9.00;99.90;;;;;;5060924;28;20454;-81
2022/11/23 01:49:34;;;;;;;3.73;1.60;;;9.00;99.90;;;;;;5078363;28;21163;-80
2022/11/23 01:52:07;;;;;;;2.73;1.10;;;9.00;99.90;;;;;;5103646;28;20473;-79
2022/11/23 01:54:38;;;;;;;4.10;1.27;;;8.90;99.90;;;;;;5102815;28;20530;-79
2022/11/23 01:57:09;;;;;;;3.03;1.27;;;8.80;99.90;;;;;;5096838;28;20475;-82
2022/11/23 01:59:36;;;;;;;3.07;1.30;;;8.80;99.90;;;;;;5087926;28;20889;-79
2022/11/23 02:02:03;;;;;;;4.97;1.33;;;8.70;99.90;;;;;;5111623;28;20553;-80
2022/11/23 02:04:34;;;;;;;3.50;1.40;;;8.80;99.90;;;;;;5099133;28;20492;-80
2022/11/23 02:07:03;;;;;;;3.40;1.00;;;8.70;99.90;;;;;;5111184;28;20538;-80
2022/11/23 02:09:32;;;;;;;8.93;1.83;;;8.70;99.90;;;;;;5111627;28;20485;-79
2022/11/23 02:12:00;;;;;;;4.83;1.50;;;8.80;99.90;;;;;;5078870;28;20475;-79
2022/11/23 02:14:27;;;;;;;3.80;1.50;;;8.70;99.90;;;;;;5102893;28;20527;-80
2022/11/23 02:16:55;;;;;;;5.97;1.80;;;8.70;99.90;;;;;;5099531;28;20470;-80
2022/11/23 02:19:28;;;;;;;4.60;1.13;;;8.70;99.90;;;;;;5098741;28;20530;-80
2022/11/23 02:21:58;;;;;;;5.00;1.53;;;8.80;99.90;;;;;;5100215;28;20515;-81
2022/11/23 02:24:32;;;;;;;3.97;1.20;;;8.80;99.90;;;;;;5092124;28;20476;-81
2022/11/23 02:27:01;;;;;;;5.00;1.50;;;8.80;99.90;;;;;;5104586;28;20519;-83
2022/11/23 02:29:29;;;;;;;4.90;1.30;;;8.80;99.90;;;;;;5095278;28;20465;-81
2022/11/23 02:31:55;;;;;;;5.20;1.67;;;8.70;99.90;;;;;;5089091;28;21093;-82
2022/11/23 02:34:22;;;;;;;6.07;1.13;;;8.70;99.90;;;;;;5098858;28;20529;-81
2022/11/23 02:36:51;;;;;;;6.33;1.77;;;8.80;99.90;;;;;;5106213;28;20447;-84
2022/11/23 02:39:23;;;;;;;3.10;1.17;;;8.70;99.90;;;;;;5098463;28;20495;-83
2022/11/23 02:41:52;;;;;;;3.07;1.17;;;8.70;99.90;;;;;;5086075;28;20461;-82
2022/11/23 02:44:31;;;;;;;4.30;1.57;;;8.80;99.90;;;;;;5085143;28;21125;-81
2022/11/23 02:46:58;;;;;;;7.70;1.60;;;8.70;99.90;;;;;;5085657;28;20478;-81
2022/11/23 02:49:25;;;;;;;3.50;1.13;;;8.70;99.90;;;;;;5086750;28;20464;-81
2022/11/23 02:51:52;;;;;;;3.10;1.60;;;8.80;99.90;;;;;;5085840;28;20503;-81
2022/11/23 02:54:19;;;;;;;5.07;1.27;;;8.80;99.90;;;;;;5087397;28;20548;-82
2022/11/23 02:56:46;;;;;;;8.33;1.23;;;8.80;99.90;;;;;;5084700;28;20934;-82
2022/11/23 02:59:13;;;;;;;5.13;1.20;;;8.80;99.90;;;;;;5084923;28;20450;-82
2022/11/23 03:01:41;;;;;;;2.47;1.20;;;8.90;99.90;;;;;;5085804;28;20516;-82
2022/11/23 03:04:09;;;;;;;4.40;1.60;;;8.90;99.90;;;;;;5086034;28;20570;-81
2022/11/23 03:06:36;;;;;;;3.00;1.30;;;8.90;99.90;;;;;;5085812;28;20452;-82
2022/11/23 03:09:03;;;;;;;8.70;1.60;;;8.90;99.90;;;;;;5097936;28;20452;-81
2022/11/23 03:11:32;;;;;;;2.40;1.50;;;9.00;99.90;;;;;;5104376;28;20536;-80
2022/11/23 03:13:59;;;;;;;3.77;1.43;;;9.00;99.90;;;;;;5088866;28;20530;-81
2022/11/23 03:16:26;;;;;;;2.83;1.37;;;9.00;99.90;;;;;;5091735;28;20445;-80
2022/11/23 03:18:54;;;;;;;7.10;1.50;;;9.10;99.90;;;;;;5098748;28;20472;-82
2022/11/23 03:21:21;;;;;;;4.33;1.20;;;9.10;99.90;;;;;;5103801;28;20489;-82
2022/11/23 03:23:48;;;;;;;1.50;0.90;;;9.10;99.90;;;;;;5088300;28;21027;-80
2022/11/23 03:26:14;;;;;;;4.70;1.10;;;9.20;99.90;;;;;;5085130;28;20452;-81
2022/11/23 03:28:43;;;;;;;3.73;1.00;;;9.20;99.90;;;;;;5085073;28;20959;-81
2022/11/23 03:31:10;;;;;;;4.03;1.30;;;9.20;99.90;;;;;;5077284;28;20477;-81
2022/11/23 03:33:37;;;;;;;6.00;1.30;;;9.30;99.90;;;;;;5088071;28;20466;-81
2022/11/23 03:36:06;;;;;;;3.20;1.13;;;9.30;99.90;;;;;;5088235;28;20969;-81
2022/11/23 03:38:33;;;;;;;4.47;1.70;;;9.30;99.90;;;;;;5085295;28;20723;-82
2022/11/23 03:40:59;;;;;;;4.07;1.47;;;9.20;99.90;;;;;;5082916;28;20478;-80
2022/11/23 03:43:26;;;;;;;3.37;1.43;;;9.10;99.90;;;;;;5094308;28;20484;-82
2022/11/23 03:45:53;;;;;;;2.70;1.10;;;9.10;99.90;;;;;;5103464;28;20465;-82
2022/11/23 03:48:20;;;;;;;4.43;1.57;;;9.00;99.90;;;;;;5096854;28;20562;-83
2022/11/23 03:50:46;;;;;;;3.47;1.30;;;9.10;99.90;;;;;;5092300;28;20459;-82
2022/11/23 03:53:15;;;;;;;4.20;1.10;;;9.10;99.90;;;;;;5088101;28;20469;-83
2022/11/23 03:55:41;;;;;;;3.77;1.63;;;9.10;99.90;;;;;;5083465;28;20568;-82
2022/11/23 03:58:08;;;;;;;3.23;1.30;;;9.00;99.90;;;;;;5092438;28;20454;-82
2022/11/23 04:00:35;;;;;;;4.17;1.50;;;9.00;99.90;;;;;;5076859;28;20449;-82
2022/11/23 04:03:02;;;;;;;3.63;1.40;;;9.00;99.90;;;;;;5086010;28;20471;-81
2022/11/23 04:05:28;;;;;;;8.00;1.60;;;9.00;99.90;;;;;;5088082;28;20467;-81
2022/11/23 04:07:55;;;;;;;5.70;1.80;;;8.90;99.90;;;;;;5084773;28;20451;-81
2022/11/23 04:10:23;;;;;;;6.53;1.60;;;8.90;99.90;;;;;;5078166;28;20555;-79
2022/11/23 04:12:51;;;;;;;3.20;1.53;;;8.80;99.90;;;;;;5093259;28;20897;-81
2022/11/23 04:15:19;;;;;;;6.37;2.07;;;8.80;99.90;;;;;;5084181;28;20976;-81
2022/11/23 04:17:46;;;;;;;5.90;1.50;;;8.80;99.90;;;;;;5077236;28;20455;-80
2022/11/23 04:20:14;;;;;;;4.20;1.40;;;8.80;99.90;;;;;;5078510;28;20586;-81
2022/11/23 04:22:40;;;;;;;7.63;1.97;;;8.80;99.90;;;;;;5081490;28;20479;-80
2022/11/23 04:25:08;;;;;;;2.50;1.40;;;8.80;99.90;;;;;;5078009;28;20844;-80
2022/11/23 04:27:36;;;;;;;3.67;1.30;;;8.80;99.90;;;;;;5089344;28;20448;-79
2022/11/23 04:30:04;;;;;;;5.27;1.80;;;8.70;99.90;;;;;;5087788;28;20454;-81
2022/11/23 04:32:31;;;;;;;5.40;1.40;;;8.80;99.90;;;;;;5078098;28;20558;-79
2022/11/23 04:34:58;;;;;;;2.13;1.17;;;8.80;99.90;;;;;;5081898;28;20454;-79
2022/11/23 04:37:25;;;;;;;4.33;1.03;;;8.70;99.90;;;;;;5077280;28;20521;-79
2022/11/23 04:39:51;;;;;;;1.90;1.03;;;8.70;99.90;;;;;;5076736;28;20455;-80
2022/11/23 04:42:18;;;;;;;6.43;1.30;;;8.80;99.90;;;;;;5092796;28;20447;-79
2022/11/23 04:44:46;;;;;;;3.63;1.83;;;8.90;99.90;;;;;;5095602;28;20493;-80
2022/11/23 04:47:13;;;;;;;4.10;1.30;;;8.80;99.90;;;;;;5077634;28;20451;-80
2022/11/23 04:49:40;;;;;;;4.67;1.40;;;8.90;99.90;;;;;;5076955;28;20446;-80
2022/11/23 04:52:07;;;;;;;8.30;1.90;;;8.90;99.90;;;;;;5097604;28;20446;-80
2022/11/23 04:54:34;;;;;;;3.93;1.60;;;8.90;99.90;;;;;;5097228;28;20481;-81
2022/11/23 04:57:00;;;;;;;6.47;1.80;;;8.90;99.90;;;;;;5077644;28;20449;-79
2022/11/23 04:59:27;;;;;;;4.00;1.20;;;8.80;99.90;;;;;;5076652;28;20455;-81
2022/11/23 05:01:55;;;;;;;3.60;1.53;;;8.80;99.90;;;;;;5094216;28;20450;-80
2022/11/23 05:04:22;;;;;;;3.57;1.90;;;8.90;99.90;;;;;;5096977;28;20504;-80
2022/11/23 05:06:49;;;;;;;5.50;1.67;;;8.80;99.90;;;;;;5080380;28;20449;-80
2022/11/23 05:09:16;;;;;;;7.90;2.43;;;8.90;99.90;;;;;;5076205;28;20453;-81
2022/11/23 05:11:43;;;;;;;3.77;1.80;;;8.90;99.90;;;;;;5089190;28;20873;-82
2022/11/23 05:14:10;;;;;;;3.07;1.10;;;8.80;99.90;;;;;;5091679;28;20465;-80
2022/11/23 05:16:37;;;;;;;3.10;1.23;;;8.80;99.90;;;;;;5085850;28;20513;-82
2022/11/23 05:19:05;;;;;;;4.00;1.30;;;8.80;99.90;;;;;;5096026;28;20519;-80
2022/11/23 05:21:32;;;;;;;4.80;1.87;;;8.90;99.90;;;;;;5093627;28;20443;-82
2022/11/23 05:23:58;;;;;;;6.53;1.30;;;8.90;99.90;;;;;;5094688;28;20493;-81
2022/11/23 05:26:25;;;;;;;6.13;1.77;;;8.90;99.90;;;;;;5084337;28;20452;-83
2022/11/23 05:28:52;;;;;;;4.23;1.77;;;8.90;99.90;;;;;;5075651;28;20451;-81
2022/11/23 05:31:19;;;;;;;4.40;1.97;;;8.90;99.90;;;;;;5092071;28;20478;-80
2022/11/23 05:33:46;;;;;;;3.87;1.73;;;8.90;99.90;;;;;;5085412;28;20524;-81
2022/11/23 05:36:14;;;;;;;5.83;1.43;;;9.00;99.90;;;;;;5076654;28;20450;-82
2022/11/23 05:38:42;;;;;;;4.53;1.60;;;9.00;99.90;;;;;;5074900;28;20451;-82
2022/11/23 05:41:08;;;;;;;4.10;1.50;;;9.00;99.90;;;;;;5086756;28;20451;-82
2022/11/23 05:43:35;;;;;;;5.27;1.80;;;9.00;99.90;;;;;;5079130;28;20602;-81
2022/11/23 05:46:02;;;;;;;3.87;1.70;;;9.00;99.90;;;;;;5092686;28;20446;-84
2022/11/23 05:48:29;;;;;;;6.63;1.50;;;8.90;99.90;;;;;;5075853;28;20535;-81
2022/11/23 05:50:56;;;;;;;3.17;1.10;;;9.00;99.90;;;;;;5085750;28;20458;-83
2022/11/23 05:53:24;;;;;;;5.10;1.47;;;8.90;99.90;;;;;;5074493;28;20473;-80
2022/11/23 05:55:51;;;;;;;2.90;1.40;;;8.90;99.90;;;;;;5083966;28;20450;-81
2022/11/23 05:58:18;;;;;;;3.90;1.53;;;8.90;99.90;;;;;;5075103;28;20468;-82
2022/11/23 06:00:44;;;;;;;5.47;1.57;;;9.00;99.90;;;;;;5081123;28;20436;-82
2022/11/23 06:03:11;;;;;;;4.63;1.60;;;9.00;99.90;;;;;;5064383;28;20590;-82
2022/11/23 06:05:38;;;;;;;5.07;1.40;;;8.90;99.90;;;;;;5069583;28;20998;-81
2022/11/23 06:08:05;;;;;;;4.10;1.80;;;8.90;99.90;;;;;;5069822;28;20482;-82
2022/11/23 06:10:33;;;;;;;2.90;1.20;;;8.80;99.90;;;;;;5076114;28;20442;-82
2022/11/23 06:13:04;;;;;;;4.97;1.97;;;8.90;99.90;;;;;;5090996;28;20471;-82
2022/11/23 06:15:31;;;;;;;9.23;1.83;;;8.90;99.90;;;;;;5093976;28;21127;-81
2022/11/23 06:18:00;;;;;;;5.17;1.20;;;8.90;99.90;;;;;;5072902;28;20888;-81
2022/11/23 06:20:28;;;;;;;5.60;1.60;;;8.90;99.90;;;;;;5074781;28;20444;-82
2022/11/23 06:23:12;;;;;;;6.80;1.40;;;8.90;99.90;;;;;;5079121;22;20585;-82
2022/11/23 06:25:41;;;;;;;6.03;1.53;;;8.80;99.90;;;;;;5100742;22;20938;-79
2022/11/23 06:28:07;;;;;;;3.67;1.30;;;8.80;99.90;;;;;;5068932;28;20451;-80
2022/11/23 06:30:34;;;;;;;10.60;1.87;;;8.80;99.90;;;;;;5075378;28;20535;-80
2022/11/23 06:33:03;;;;;;;9.50;1.40;;;8.80;99.90;;;;;;5073007;28;20458;-81
2022/11/23 06:35:30;;;;;;;7.47;1.80;;;8.90;99.90;;;;;;5075649;28;20499;-81
2022/11/23 06:37:57;;;;;;;5.73;1.50;;;8.80;99.90;;;;;;5075075;28;20460;-80
2022/11/23 06:40:24;;;;;;;4.07;1.70;;;8.80;99.90;;;;;;5072493;28;20452;-80
2022/11/23 06:42:57;;;;;;;3.70;1.63;;;8.90;99.90;;;;;;5074803;28;20457;-81
2022/11/23 06:45:24;;;;;;;7.77;1.30;;;8.80;99.90;;;;;;5069960;28;20485;-81
2022/11/23 06:47:51;;;;;;;5.10;2.07;;;8.90;99.90;;;;;;5069050;28;20487;-82
2022/11/23 06:50:18;;;;;;;7.80;2.40;;;8.90;99.90;;;;;;5067623;28;20467;-79
2022/11/23 06:52:44;;;;;;;4.67;1.50;;;8.90;99.90;;;;;;5063180;28;20527;-79
2022/11/23 06:55:11;;;;;;;6.87;2.73;;;8.80;99.90;;;;;;5067659;28;20460;-80
2022/11/23 06:57:38;;;;;;;4.37;1.90;;;8.90;99.90;;;;;;5064390;28;20455;-80
2022/11/23 07:00:08;;;;;;;5.50;1.70;;;8.90;99.90;;;;;;5068484;28;21184;-80
2022/11/23 07:02:34;;;;;;;5.93;1.80;;;8.90;99.90;;;;;;5083552;28;20526;-79
2022/11/23 07:05:01;;;;;;;7.90;2.10;;;8.90;99.90;;;;;;5067478;28;20483;-80
2022/11/23 07:07:28;;;;;;;5.93;2.23;;;8.90;99.90;;;;;;5063534;28;20458;-81
2022/11/23 07:09:55;;;;;;;4.77;2.20;;;8.90;99.90;;;;;;5066773;28;20840;-80
2022/11/23 07:12:22;;;;;;;7.63;1.90;;;8.90;99.90;;;;;;5069306;28;20538;-80
2022/11/23 07:14:48;;;;;;;4.27;1.57;;;8.90;99.90;;;;;;5071199;28;20482;-80
2022/11/23 07:17:17;;;;;;;7.27;2.60;;;8.90;99.90;;;;;;5065818;28;20467;-80
2022/11/23 07:19:43;;;;;;;5.63;1.93;;;8.80;99.90;;;;;;5068926;28;20469;-80
2022/11/23 07:22:10;;;;;;;4.33;1.70;;;8.80;99.90;;;;;;5066386;28;20456;-80
2022/11/23 07:24:37;;;;;;;8.13;2.20;;;8.80;99.90;;;;;;5067030;28;21024;-80
2022/11/23 07:27:04;;;;;;;5.50;1.70;;;8.80;99.90;;;;;;5066099;28;20840;-80
2022/11/23 07:29:30;;;;;;;8.40;3.03;;;8.70;99.90;;;;;;5065860;28;20448;-80
2022/11/23 07:31:57;;;;;;;3.33;1.90;;;8.60;99.90;;;;;;5066897;28;20981;-80
2022/11/23 07:34:27;;;;;;;6.30;2.00;;;8.60;99.90;;;;;;5067172;28;20504;-80
2022/11/23 07:36:54;;;;;;;5.20;1.40;;;8.60;99.90;;;;;;5069263;28;20583;-79
2022/11/23 07:39:21;;;;;;;5.40;3.20;;;8.60;99.90;;;;;;5063558;28;20465;-79
2022/11/23 07:41:49;;;;;;;6.67;1.83;;;8.60;99.90;;;;;;5066200;28;20455;-79
2022/11/23 07:44:15;;;;;;;4.53;1.43;;;8.70;99.90;;;;;;5067939;28;20489;-79
2022/11/23 07:46:42;;;;;;;8.87;1.43;;;8.70;99.90;;;;;;5066555;28;20467;-80
2022/11/23 07:49:09;;;;;;;4.37;1.50;;;8.80;99.90;;;;;;5069817;28;20461;-79
2022/11/23 07:51:37;;;;;;;3.10;1.50;;;8.80;99.90;;;;;;5072503;28;20520;-79
2022/11/23 07:54:04;;;;;;;6.63;1.87;;;8.90;99.90;;;;;;5074068;28;20462;-79
2022/11/23 07:56:31;;;;;;;4.50;1.30;;;8.80;99.90;;;;;;5074553;28;21116;-78
2022/11/23 07:58:58;;;;;;;3.63;1.40;;;8.80;99.90;;;;;;5073258;28;20831;-78
2022/11/23 08:01:25;;;;;;;2.50;1.30;;;8.90;99.90;;;;;;5073666;28;20462;-80
2022/11/23 08:03:51;;;;;;;3.63;1.37;;;8.90;99.90;;;;;;5070631;28;20456;-80
2022/11/23 08:06:18;;;;;;;3.23;1.10;;;8.90;99.90;;;;;;5072998;28;20584;-80
2022/11/23 08:08:46;;;;;;;5.50;1.93;;;9.00;99.90;;;;;;5074418;28;21026;-79
2022/11/23 08:11:16;;;;;;;3.87;1.33;;;9.10;99.90;;;;;;5075813;28;20459;-80
2022/11/23 08:13:43;;;;;;;4.03;1.00;;;9.20;99.90;;;;;;5074571;28;20463;-79
2022/11/23 08:16:09;;;;;;;7.07;1.30;;;9.30;99.90;;;;;;5075240;28;20478;-78
2022/11/23 08:18:36;;;;;;;3.23;1.10;;;9.40;99.90;;;;;;5076327;28;20488;-79
2022/11/23 08:21:04;;;;;;;5.97;1.30;;;9.40;99.90;;;;;;5076364;28;20455;-79
2022/11/23 08:23:31;;;;;;;6.03;1.07;;;9.40;99.90;;;;;;5078068;28;20452;-79
2022/11/23 08:25:59;;;;;;;4.87;1.40;;;9.50;99.90;;;;;;5077118;28;20526;-78
2022/11/23 08:28:33;;;;;;;4.67;1.47;;;9.60;99.90;;;;;;5072027;28;20453;-80
2022/11/23 08:31:05;;;;;;;9.30;1.57;;;9.70;99.90;;;;;;5069506;28;20443;-79
2022/11/23 08:33:32;;;;;;;4.40;1.40;;;9.80;99.90;;;;;;5072443;28;20479;-79
2022/11/23 08:36:04;;;;;;;9.27;2.00;;;9.90;99.90;;;;;;5070986;28;21160;-77
2022/11/23 08:38:31;;;;;;;3.87;1.30;;;9.90;99.90;;;;;;5065867;28;20457;-79
2022/11/23 08:41:00;;;;;;;5.70;1.43;;;10.00;99.90;;;;;;5071405;28;20548;-79
2022/11/23 08:43:27;;;;;;;5.70;2.20;;;10.10;99.90;;;;;;5078415;28;20441;-79
2022/11/23 08:45:54;;;;;;;8.97;1.50;;;10.30;99.90;;;;;;5065834;28;20501;-79
2022/11/23 08:48:21;;;;;;;9.93;2.60;;;10.40;99.90;;;;;;5068244;28;20468;-79
2022/11/23 08:50:48;;;;;;;5.40;1.43;;;10.40;99.90;;;;;;5074296;28;20453;-79
2022/11/23 08:53:15;;;;;;;9.57;1.93;;;10.40;99.90;;;;;;5076623;28;20889;-79
2022/11/23 08:55:42;;;;;;;4.93;1.50;;;10.30;99.90;;;;;;5086301;28;20548;-79
2022/11/23 08:58:10;;;;;;;5.13;1.63;;;10.20;99.90;;;;;;5083475;28;20514;-79
2022/11/23 09:00:37;;;;;;;11.60;1.93;;;10.10;99.90;;;;;;5085072;28;20446;-79
2022/11/23 09:03:04;;;;;;;7.30;1.47;;;10.00;99.90;;;;;;5075977;28;20450;-79
2022/11/23 09:05:31;;;;;;;7.30;1.70;;;9.80;99.90;;;;;;5077202;28;20603;-79
2022/11/23 09:08:00;;;;;;;7.07;1.73;;;9.80;99.90;;;;;;5077697;28;20448;-79
2022/11/23 09:10:27;;;;;;;5.93;1.33;;;9.70;99.90;;;;;;5082616;28;20485;-78
2022/11/23 09:12:54;;;;;;;6.23;1.60;;;9.70;99.90;;;;;;5095759;28;20450;-79
2022/11/23 09:15:22;;;;;;;4.17;1.43;;;9.70;99.90;;;;;;5076684;28;20476;-77
2022/11/23 09:17:49;;;;;;;4.90;1.40;;;9.60;99.90;;;;;;5076178;28;20452;-78
2022/11/23 09:20:16;;;;;;;6.83;1.63;;;9.60;99.90;;;;;;5076613;28;20540;-78
2022/11/23 09:22:43;;;;;;;5.70;1.70;;;9.60;99.90;;;;;;5077197;28;20515;-79
2022/11/23 09:25:10;;;;;;;5.27;1.50;;;9.70;99.90;;;;;;5076184;28;20487;-78
2022/11/23 09:27:37;;;;;;;11.90;2.07;;;9.60;99.90;;;;;;5075995;28;20455;-79
2022/11/23 09:30:04;;;;;;;5.73;2.30;;;9.60;99.90;;;;;;5076537;28;20461;-79
2022/11/23 09:32:33;;;;;;;5.57;1.53;;;9.70;99.90;;;;;;5076344;28;20972;-79
2022/11/23 09:35:00;;;;;;;7.10;1.80;;;9.70;99.90;;;;;;5076594;28;20479;-79
2022/11/23 09:37:27;;;;;;;5.53;1.60;;;9.70;99.90;;;;;;5077192;28;20525;-79
2022/11/23 09:39:54;;;;;;;7.80;1.87;;;9.70;99.90;;;;;;5077054;28;20880;-79
2022/11/23 09:42:39;;;;;;;5.93;1.87;;;9.70;99.90;;;;;;5076633;28;20449;-79
2022/11/23 09:45:16;;;;;;;2.87;1.37;;;9.70;99.90;;;;;;5088945;28;20548;-79
2022/11/23 09:48:05;;;;;;;5.13;1.40;;;9.70;99.90;;;;;;5087407;28;20509;-79
2022/11/23 09:50:42;;;;;;;5.00;1.90;;;9.80;99.90;;;;;;5084033;28;20472;-79
2022/11/23 09:53:15;;;;;;;6.27;1.50;;;9.80;99.90;;;;;;5074971;28;20528;-78
2022/11/23 09:55:45;;;;;;;7.07;1.43;;;9.80;99.90;;;;;;5075415;28;20458;-79
2022/11/23 09:58:16;;;;;;;11.00;2.57;;;9.80;99.90;;;;;;5075189;28;20462;-78
2022/11/23 10:00:47;;;;;;;8.37;2.43;;;9.80;99.90;;;;;;5074858;28;20476;-79
2022/11/23 10:03:17;;;;;;;7.00;2.10;;;9.80;99.90;;;;;;5075489;28;21007;-79
2022/11/23 10:05:52;;;;;;;6.00;2.03;;;9.90;99.90;;;;;;5075346;28;20488;-79
2022/11/23 10:08:31;;;;;;;6.27;1.97;;;9.90;99.90;;;;;;5074953;28;20980;-78
2022/11/23 10:11:04;;;;;;;4.80;1.80;;;9.90;99.90;;;;;;5075443;28;20453;-79
2022/11/23 10:13:38;;;;;;;6.50;1.60;;;9.90;99.90;;;;;;5074995;28;20452;-79
2022/11/23 10:16:25;;;;;;;10.60;2.00;;;9.90;99.90;;;;;;5075879;28;20494;-79
2022/11/23 10:19:00;;;;;;;8.40;1.83;;;10.00;99.90;;;;;;5075324;28;20465;-79
2022/11/23 10:21:37;;;;;;;5.03;1.50;;;10.00;99.90;;;;;;5074775;28;20987;-79
2022/11/23 10:24:14;;;;;;;7.00;1.83;;;10.10;99.90;;;;;;5075089;28;20450;-79
2022/11/23 10:26:44;;;;;;;4.70;1.20;;;10.10;99.90;;;;;;5075613;28;20539;-79
2022/11/23 10:29:15;;;;;;;7.83;1.60;;;10.10;99.90;;;;;;5076355;28;20447;-80
2022/11/23 10:31:47;;;;;;;6.43;2.03;;;10.10;99.90;;;;;;5076021;28;20446;-79
2022/11/23 10:34:18;;;;;;;10.70;1.70;;;10.20;99.90;;;;;;5074793;28;20461;-80
2022/11/23 10:36:45;;;;;;;6.57;1.83;;;10.20;99.90;;;;;;5074737;28;21161;-79
2022/11/23 10:39:19;;;;;;;5.17;1.40;;;10.20;99.90;;;;;;5081770;28;20802;-79
2022/11/23 10:41:46;;;;;;;5.53;1.63;;;10.20;99.90;;;;;;5081825;28;20453;-79
2022/11/23 10:44:25;;;;;;;6.20;1.77;;;10.20;99.90;;;;;;5084071;28;20959;-80
2022/11/23 10:46:52;;;;;;;5.83;2.43;;;10.30;99.90;;;;;;5083798;28;20491;-78
2022/11/23 10:49:22;;;;;;;7.10;1.57;;;10.30;99.90;;;;;;5084119;28;20451;-78
2022/11/23 10:51:57;;;;;;;7.10;2.07;;;10.30;99.90;;;;;;5091174;28;20471;-79
2022/11/23 10:54:30;;;;;;;5.97;1.83;;;10.40;99.90;;;;;;5091595;28;20519;-79
2022/11/23 10:56:58;;;;;;;5.80;1.80;;;10.50;99.90;;;;;;5095290;28;20528;-79
2022/11/23 10:59:35;;;;;;;10.50;1.77;;;10.60;99.90;;;;;;5089206;28;20454;-78
2022/11/23 11:02:15;;;;;;;4.83;1.67;;;10.70;99.90;;;;;;5090822;28;20922;-78
2022/11/23 11:04:44;;;;;;;11.77;1.80;;;10.80;99.90;;;;;;5091273;28;20875;-80
2022/11/23 11:07:21;;;;;;;6.23;1.43;;;11.00;99.90;;;;;;5095305;28;20576;-79
2022/11/23 11:09:56;;;;;;;9.63;1.97;;;11.30;99.90;;;;;;5093050;28;20536;-81
2022/11/23 11:12:23;;;;;;;7.07;1.83;;;11.90;99.90;;;;;;5091097;28;20446;-80
2022/11/23 11:15:03;;;;;;;5.90;1.70;;;12.50;99.90;;;;;;5095155;28;21060;-78
2022/11/23 11:17:33;;;;;;;6.57;1.73;;;13.40;99.90;;;;;;5082619;28;20511;-79
2022/11/23 11:20:30;;;;;;;7.80;2.60;;;14.50;99.90;;;;;;5082420;28;20524;-79
2022/11/23 11:22:58;;;;;;;4.17;1.60;;;14.90;99.90;;;;;;5089068;28;20455;-79
2022/11/23 11:25:31;;;;;;;5.90;2.00;;;16.50;99.90;;;;;;5071148;28;20498;-80
2022/11/23 11:27:59;;;;;;;7.87;1.63;;;17.50;99.90;;;;;;5067374;28;20458;-81
2022/11/23 11:30:30;;;;;;;8.87;1.90;;;18.20;99.90;;;;;;5069951;28;20826;-81
2022/11/23 11:33:09;;;;;;;6.33;1.60;;;18.00;99.90;;;;;;5070812;28;20448;-81
2022/11/23 11:35:42;;;;;;;7.37;1.67;;;17.10;99.90;;;;;;5075407;28;20464;-80
2022/11/23 11:38:15;;;;;;;4.57;1.20;;;15.60;99.90;;;;;;5069957;28;20459;-80
2022/11/23 11:40:46;;;;;;;6.70;1.77;;;15.10;99.90;;;;;;5071275;28;20451;-80
2022/11/23 11:43:20;;;;;;;7.07;1.63;;;14.80;99.90;;;;;;5070730;28;21344;-81
2022/11/23 11:45:48;;;;;;;5.83;1.43;;;15.30;99.90;;;;;;5069942;28;20497;-81
2022/11/23 11:48:20;;;;;;;3.57;1.30;;;16.30;99.90;;;;;;5069974;28;21042;-81
2022/11/23 11:50:52;;;;;;;5.20;1.47;;;17.40;99.90;;;;;;5070016;28;20455;-80
2022/11/23 11:53:26;;;;;;;6.17;1.93;;;17.00;99.90;;;;;;5069790;28;20957;-80
2022/11/23 11:55:58;;;;;;;7.07;1.77;;;17.80;99.90;;;;;;5055644;28;20548;-80
2022/11/23 11:58:29;;;;;;;6.20;1.60;;;18.20;99.90;;;;;;5072695;28;20502;-78
2022/11/23 12:01:03;;;;;;;8.13;1.93;;;18.10;99.90;;;;;;5073158;28;20447;-80
2022/11/23 12:03:41;;;;;;;4.83;1.80;;;17.40;99.90;;;;;;5066761;28;20833;-80
2022/11/23 12:06:17;;;;;;;5.00;1.60;;;17.00;99.90;;;;;;5073524;28;20479;-80
2022/11/23 12:08:50;;;;;;;7.30;1.97;;;16.40;99.90;;;;;;5070717;28;20449;-80
2022/11/23 12:11:28;;;;;;;5.73;1.70;;;15.80;99.90;;;;;;5066526;28;20462;-80
2022/11/23 12:14:01;;;;;;;8.73;2.70;;;16.20;99.90;;;;;;5069785;28;20862;-79
2022/11/23 12:16:36;;;;;;;7.17;2.40;;;15.80;99.90;;;;;;5076404;28;20471;-80
2022/11/23 12:19:14;;;;;;;6.97;1.60;;;15.20;99.90;;;;;;5069738;28;20449;-83
2022/11/23 12:22:15;;;;;;;4.33;1.77;;;14.20;99.90;;;;;;5072942;28;20955;-79
2022/11/23 12:25:10;;;;;;;6.17;1.90;;;13.60;99.90;;;;;;5074467;28;20481;-81
2022/11/23 12:27:46;;;;;;;5.60;1.97;;;12.90;99.90;;;;;;5074956;22;20520;-84
2022/11/23 12:30:25;;;;;;;4.70;1.70;;;12.70;99.90;;;;;;5061478;28;20449;-83
2022/11/23 12:33:18;;;;;;;5.80;1.93;;;12.50;99.90;;;;;;5055260;28;20453;-82
2022/11/23 12:35:54;;;;;;;4.20;1.47;;;12.40;99.90;;;;;;5067990;28;20948;-81
2022/11/23 12:38:30;;;;;;;6.73;1.80;;;12.50;99.90;;;;;;5067455;28;20545;-82
2022/11/23 12:41:22;;;;;;;6.07;1.77;;;12.70;99.90;;;;;;5063900;28;20450;-82
2022/11/23 12:44:01;;;;;;;7.70;1.97;;;12.80;99.90;;;;;;5062163;28;20483;-82
2022/11/23 12:46:38;;;;;;;10.37;2.33;;;13.00;99.90;;;;;;5066750;28;21186;-83
2022/11/23 12:49:17;;;;;;;7.10;2.23;;;12.70;99.90;;;;;;5066544;28;20555;-84
2022/11/23 12:51:52;;;;;;;5.43;1.80;;;12.30;99.90;;;;;;5076232;28;20959;-83
2022/11/23 12:54:37;;;;;;;8.50;1.90;;;12.00;99.90;;;;;;5075352;28;20506;-82
2022/11/23 12:57:17;;;;;;;4.47;1.67;;;11.90;99.90;;;;;;5075118;28;20456;-83
2022/11/23 12:59:47;;;;;;;6.53;1.70;;;11.90;99.90;;;;;;5064054;28;20534;-84
2022/11/23 13:02:38;;;;;;;5.30;1.90;;;11.70;99.90;;;;;;5066254;28;20470;-83
2022/11/23 13:05:36;;;;;;;8.97;2.63;;;11.70;99.90;;;;;;5064404;28;20852;-83
2022/11/23 13:08:25;;;;;;;6.10;2.00;;;11.60;99.90;;;;;;5069878;28;20520;-84